MSC Armonia — H8EW — position and weather

sailwx.info

Track history (hours):
 
Tides and Currents Weather Stations Pressure Air Temp Water Temp Dewpoint Dewpoint Depression Visibility Wind Speed Wind Dir Waves Ship Positions

MSC Armonia

Operator: Mediterranean Shipping Company

Last reported at 2017-Sep-24 20:17 UTC. Time now 2017-Sep-25 10:07 UTC.
Position N 42°02' E 004°52'.

Length 275 m; draft 6.8 m.

Type: Ship. MMSI: 357281000.

Date/timePositionNaut miles runAvg speedWind from/ knotsBaromVisibWave heightAir tempDewpointWater temp
2017-Sep-24 20:17N 42°02' E 004°52'415.8
2017-Sep-24 20:00N 42°06' E 004°53'815.6
2017-Sep-24 19:31N 42°14' E 004°55'815.8
2017-Sep-24 19:00N 42°22' E 004°57'815.8
2017-Sep-24 18:31N 42°30' E 004°59'816.0
2017-Sep-24 18:01N 42°38' E 005°01'816.0
2017-Sep-24 17:31N 42°45' E 005°03'815.7
2017-Sep-24 17:00N 42°53' E 005°05'815.4
2017-Sep-24 16:30N 43°01' E 005°07'815.4
2017-Sep-24 16:01N 43°08' E 005°09'815.5
2017-Sep-24 15:31N 43°16' E 005°13'713.3
2017-Sep-24 15:01N 43°21' E 005°18'1 0.1
2017-Sep-24 06:09N 43°21' E 005°19'1 7.3
2017-Sep-24 06:00N 43°21' E 005°18'611.3
2017-Sep-24 05:30N 43°15' E 005°16'713.8
2017-Sep-24 04:59N 43°09' E 005°21'713.9
2017-Sep-24 04:30N 43°05' E 005°29'6814.3
2017-Sep-23 23:42N 43°09' E 007°02'316.1
2017-Sep-23 23:30N 43°11' E 007°06'815.8
2017-Sep-23 23:00N 43°14' E 007°16'  
2017-Sep-20 08:55N 39°19' E 003°35'615.8
2017-Sep-20 08:30N 39°16' E 003°28'816.0
2017-Sep-20 08:00N 39°12' E 003°19'816.4
2017-Sep-20 07:31N 39°08' E 003°10'816.3
2017-Sep-20 07:00N 39°04' E 003°00'816.2
2017-Sep-20 06:30N 39°03' E 002°50'816.2
2017-Sep-20 06:00N 39°02' E 002°39'816.1
2017-Sep-20 05:30N 39°00' E 002°29'816.1
2017-Sep-20 05:00N 38°59' E 002°19'816.1
2017-Sep-20 04:30N 38°58' E 002°09'816.0
2017-Sep-20 04:00N 38°57' E 001°59'816.1
2017-Sep-20 03:30N 38°56' E 001°48'1016.0
2017-Sep-20 02:52N 38°54' E 001°36'615.4
2017-Sep-20 02:30N 38°54' E 001°28'1 1.9
2017-Sep-20 02:00N 38°54' E 001°27'0 0.0
2017-Sep-20 01:30N 38°54' E 001°27'0 0.0
2017-Sep-20 01:00N 38°54' E 001°27'0 0.0
2017-Sep-20 00:30N 38°54' E 001°27'0 0.0
2017-Sep-20 00:00N 38°54' E 001°27'0 0.0
2017-Sep-19 23:30N 38°54' E 001°27'0 0.0
2017-Sep-19 23:00N 38°54' E 001°27'0 0.0
2017-Sep-19 22:30N 38°54' E 001°27'0 0.0
2017-Sep-19 22:00N 38°54' E 001°27'0 0.0
2017-Sep-19 21:30N 38°54' E 001°27'0 0.0
2017-Sep-19 21:00N 38°54' E 001°27'0 0.0
2017-Sep-19 20:27N 38°54' E 001°27'0 0.0
2017-Sep-19 20:00N 38°54' E 001°27'0 0.0
2017-Sep-19 19:30N 38°54' E 001°27'0 0.0
2017-Sep-19 06:01N 38°54' E 001°27'9 9.3
2017-Sep-19 05:06N 38°57' E 001°37'3 9.7
2017-Sep-19 04:49N 38°59' E 001°40'3 9.9
2017-Sep-19 04:28N 39°01' E 001°44'5 9.9
2017-Sep-19 04:00N 39°03' E 001°49'5 9.8
2017-Sep-19 03:30N 39°06' E 001°54'5 9.6
2017-Sep-19 03:01N 39°09' E 001°59'5 9.0
2017-Sep-19 02:30N 39°11' E 002°04'4 8.5
2017-Sep-19 02:00N 39°13' E 002°09'4 8.2
2017-Sep-19 01:30N 39°16' E 002°13'4 8.5
2017-Sep-19 01:01N 39°18' E 002°17'5 9.3
2017-Sep-19 00:30N 39°20' E 002°23'5 9.1
2017-Sep-19 00:00N 39°23' E 002°27'5 9.2
2017-Sep-18 23:31N 39°25' E 002°32'5 9.1
2017-Sep-18 23:00N 39°29' E 002°36'5 9.1
2017-Sep-18 22:30N 39°33' E 002°39'1 1.2
2017-Sep-18 22:00N 39°33' E 002°38'0 0.0
2017-Sep-18 21:30N 39°33' E 002°38'0 0.0
2017-Sep-18 21:00N 39°33' E 002°38'0 0.0
2017-Sep-18 20:30N 39°33' E 002°38'0 0.0
2017-Sep-18 20:00N 39°33' E 002°38'0 0.0
2017-Sep-18 19:30N 39°33' E 002°38'0 0.0
2017-Sep-18 19:00N 39°33' E 002°38'0 0.0
2017-Sep-18 18:30N 39°33' E 002°38'0 0.0
2017-Sep-18 18:00N 39°33' E 002°38'0 0.0
2017-Sep-18 17:30N 39°33' E 002°38'0 0.0
2017-Sep-18 17:00N 39°33' E 002°38'0 0.0
2017-Sep-18 16:30N 39°33' E 002°38'0 0.0
2017-Sep-18 16:00N 39°33' E 002°38'0 0.0
2017-Sep-18 15:30N 39°33' E 002°38'0 0.0
2017-Sep-18 15:00N 39°33' E 002°38'0 0.0
2017-Sep-18 14:30N 39°33' E 002°38'0 0.0
2017-Sep-18 14:00N 39°33' E 002°38'0 0.0
2017-Sep-18 13:30N 39°33' E 002°38'0 0.0
2017-Sep-18 13:00N 39°33' E 002°38'0 0.0
2017-Sep-18 12:27N 39°33' E 002°38'0 0.3
2017-Sep-18 12:00N 39°33' E 002°38'3 6.4
2017-Sep-18 11:29N 39°30' E 002°37'714.1
2017-Sep-18 11:00N 39°25' E 002°31'714.2
2017-Sep-18 10:30N 39°28' E 002°22'1511.6
2017-Sep-18 09:12N 39°43' E 002°21'313.9
2017-Sep-18 09:00N 39°45' E 002°23'713.9
2017-Sep-18 08:30N 39°51' E 002°27'713.7
2017-Sep-18 08:00N 39°57' E 002°32'713.8
2017-Sep-18 07:30N 40°03' E 002°37'713.6
2017-Sep-18 07:00N 40°09' E 002°41'713.6
2017-Sep-18 06:30N 40°15' E 002°46'714.4
2017-Sep-18 06:00N 40°21' E 002°51'714.4
2017-Sep-18 05:30N 40°27' E 002°56'714.1
2017-Sep-18 05:00N 40°33' E 003°00'713.9
2017-Sep-18 04:30N 40°39' E 003°05'714.2
2017-Sep-18 04:00N 40°45' E 003°10'13315.1
2017-Sep-17 19:11N 42°39' E 004°42'315.0
2017-Sep-17 19:00N 42°41' E 004°44'815.7
2017-Sep-17 18:30N 42°48' E 004°50'815.3
2017-Sep-17 18:00N 42°54' E 004°55'815.2
2017-Sep-17 17:31N 43°01' E 005°00'815.5
2017-Sep-17 17:00N 43°07' E 005°06'815.3
2017-Sep-17 16:30N 43°14' E 005°12'914.8
2017-Sep-17 15:56N 43°21' E 005°18'1 0.1
2017-Sep-17 06:23N 43°21' E 005°19'4 9.9
2017-Sep-17 06:00N 43°18' E 005°16'7713.1
2017-Sep-17 00:07N 43°10' E 007°02'216.5
2017-Sep-17 00:00N 43°11' E 007°04'916.1
2017-Sep-16 23:26N 43°14' E 007°16'6014.7
2017-Sep-16 19:22N 43°42' E 008°28'615.2
2017-Sep-16 19:00N 43°46' E 008°33'815.2
2017-Sep-16 18:30N 43°52' E 008°40'815.4
2017-Sep-16 18:00N 43°58' E 008°46'815.3
2017-Sep-16 17:30N 44°04' E 008°53'815.3
2017-Sep-16 17:00N 44°12' E 008°56'815.4
2017-Sep-16 16:30N 44°19' E 008°58'510.9
2017-Sep-16 16:00N 44°24' E 008°55'0 0.5
2017-Sep-16 15:23N 44°25' E 008°55'0 0.0
2017-Sep-16 14:53N 44°25' E 008°55'0 0.0
2017-Sep-16 14:26N 44°25' E 008°55'0 0.0
2017-Sep-16 13:56N 44°25' E 008°55'0 0.0
2017-Sep-16 13:23N 44°25' E 008°55'0 0.0
2017-Sep-16 12:56N 44°25' E 008°55'0 0.0
2017-Sep-16 12:26N 44°25' E 008°55'0 0.0
2017-Sep-16 11:56N 44°25' E 008°55'0 0.0
2017-Sep-16 11:26N 44°25' E 008°55'0 0.0
2017-Sep-16 10:56N 44°25' E 008°55'0 0.0
2017-Sep-16 10:26N 44°25' E 008°55'0 0.0
2017-Sep-16 09:56N 44°25' E 008°55'0 0.0
2017-Sep-16 09:29N 44°25' E 008°55'0 0.0
2017-Sep-16 08:59N 44°25' E 008°55'0 0.0
2017-Sep-16 08:29N 44°25' E 008°55'0 0.0
2017-Sep-16 07:59N 44°25' E 008°55'0 0.0
2017-Sep-16 07:29N 44°25' E 008°55'0 0.0
2017-Sep-16 06:59N 44°25' E 008°55'0 0.0
2017-Sep-16 06:29N 44°25' E 008°55'0 0.0
2017-Sep-16 05:59N 44°25' E 008°55'0 0.0
2017-Sep-16 05:30N 44°25' E 008°55'1 1.1
2017-Sep-16 05:00N 44°24' E 008°55'2 4.2
2017-Sep-16 04:30N 44°23' E 008°57'4 7.6
2017-Sep-16 04:00N 44°19' E 008°59'5 9.2
2017-Sep-16 03:30N 44°15' E 009°01'5 9.8
2017-Sep-16 03:00N 44°10' E 009°03'510.0
2017-Sep-16 02:30N 44°05' E 009°06'510.1
2017-Sep-16 02:00N 44°01' E 009°08'510.5
2017-Sep-16 01:30N 43°56' E 009°10'4 8.3
2017-Sep-16 01:00N 43°52' E 009°12'3 6.9
2017-Sep-16 00:30N 43°49' E 009°14'3 7.0
2017-Sep-16 00:00N 43°45' E 009°15'3 6.9
2017-Sep-15 23:30N 43°42' E 009°17'3 6.7
2017-Sep-15 23:00N 43°39' E 009°19'3 6.7
2017-Sep-15 22:30N 43°36' E 009°21'4 7.1
2017-Sep-15 22:00N 43°33' E 009°23'4 7.9
2017-Sep-15 21:30N 43°32' E 009°29'4 8.2
2017-Sep-15 21:00N 43°32' E 009°34'4 8.2
2017-Sep-15 20:30N 43°32' E 009°40'4 8.0
2017-Sep-15 20:00N 43°32' E 009°46'4 8.1
2017-Sep-15 19:30N 43°32' E 009°51'4 8.0
2017-Sep-15 19:00N 43°32' E 009°57'4 8.1
2017-Sep-15 18:30N 43°31' E 010°02'4 8.0
2017-Sep-15 18:00N 43°30' E 010°07'4 8.6
2017-Sep-15 17:30N 43°31' E 010°13'4 7.2
2017-Sep-15 17:01N 43°33' E 010°18'0 0.0
2017-Sep-15 16:29N 43°33' E 010°18'0 0.0
2017-Sep-15 15:59N 43°33' E 010°18'0 0.0
2017-Sep-15 15:20N 43°33' E 010°18'0 0.0
2017-Sep-15 14:59N 43°33' E 010°18'0 0.0
2017-Sep-15 14:29N 43°33' E 010°18'0 0.0
2017-Sep-15 13:59N 43°33' E 010°18'0 0.0
2017-Sep-15 13:29N 43°33' E 010°18'0 0.0
2017-Sep-15 12:59N 43°33' E 010°18'0 0.0
2017-Sep-15 12:29N 43°33' E 010°18'0 0.0
2017-Sep-15 11:59N 43°33' E 010°18'0 0.0
2017-Sep-15 11:29N 43°33' E 010°18'0 0.0
2017-Sep-15 10:59N 43°33' E 010°18'0 0.0
2017-Sep-15 10:29N 43°33' E 010°18'0 0.0
2017-Sep-15 09:59N 43°33' E 010°18'0 0.0
2017-Sep-15 09:29N 43°33' E 010°18'0 0.0
2017-Sep-15 08:59N 43°33' E 010°18'0 0.0
2017-Sep-15 08:29N 43°33' E 010°18'0 0.0
2017-Sep-15 07:59N 43°33' E 010°18'0 0.0
2017-Sep-15 07:29N 43°33' E 010°18'0 0.0
2017-Sep-15 06:59N 43°33' E 010°18'0 0.0
2017-Sep-15 06:29N 43°33' E 010°18'0 0.0
2017-Sep-15 05:59N 43°33' E 010°18'0 0.2
2017-Sep-15 05:30N 43°33' E 010°18'2 3.5
2017-Sep-15 05:00N 43°32' E 010°16'5 9.7
2017-Sep-15 04:30N 43°28' E 010°13'611.3
2017-Sep-15 04:00N 43°22' E 010°10'713.2
2017-Sep-15 03:30N 43°16' E 010°07'714.0
2017-Sep-15 03:00N 43°09' E 010°04'  
Track history (hours):
 
Tides and Currents Weather Stations Pressure Air Temp Water Temp Dewpoint Dewpoint Depression Visibility Wind Speed Wind Dir Waves Ship Positions

MSC Armonia

Operator: Mediterranean Shipping Company

Last reported at 2017-Sep-24 20:17 UTC. Time now 2017-Sep-25 10:07 UTC.
Position N 42°02' E 004°52'.

Length 275 m; draft 6.8 m.

Type: Ship. MMSI: 357281000.

Date/timePositionNaut miles runAvg speedWind from/ knotsBaromVisibWave heightAir tempDewpointWater temp
2017-Sep-24 20:17N 42°02' E 004°52'415.8
2017-Sep-24 20:00N 42°06' E 004°53'815.6
2017-Sep-24 19:31N 42°14' E 004°55'815.8
2017-Sep-24 19:00N 42°22' E 004°57'815.8
2017-Sep-24 18:31N 42°30' E 004°59'816.0
2017-Sep-24 18:01N 42°38' E 005°01'816.0
2017-Sep-24 17:31N 42°45' E 005°03'815.7
2017-Sep-24 17:00N 42°53' E 005°05'815.4
2017-Sep-24 16:30N 43°01' E 005°07'815.4
2017-Sep-24 16:01N 43°08' E 005°09'815.5
2017-Sep-24 15:31N 43°16' E 005°13'713.3
2017-Sep-24 15:01N 43°21' E 005°18'1 0.1
2017-Sep-24 06:09N 43°21' E 005°19'1 7.3
2017-Sep-24 06:00N 43°21' E 005°18'611.3
2017-Sep-24 05:30N 43°15' E 005°16'713.8
2017-Sep-24 04:59N 43°09' E 005°21'713.9
2017-Sep-24 04:30N 43°05' E 005°29'6814.3
2017-Sep-23 23:42N 43°09' E 007°02'316.1
2017-Sep-23 23:30N 43°11' E 007°06'815.8
2017-Sep-23 23:00N 43°14' E 007°16'  
2017-Sep-20 08:55N 39°19' E 003°35'615.8
2017-Sep-20 08:30N 39°16' E 003°28'816.0
2017-Sep-20 08:00N 39°12' E 003°19'816.4
2017-Sep-20 07:31N 39°08' E 003°10'816.3
2017-Sep-20 07:00N 39°04' E 003°00'816.2
2017-Sep-20 06:30N 39°03' E 002°50'816.2
2017-Sep-20 06:00N 39°02' E 002°39'816.1
2017-Sep-20 05:30N 39°00' E 002°29'816.1
2017-Sep-20 05:00N 38°59' E 002°19'816.1
2017-Sep-20 04:30N 38°58' E 002°09'816.0
2017-Sep-20 04:00N 38°57' E 001°59'816.1
2017-Sep-20 03:30N 38°56' E 001°48'1016.0
2017-Sep-20 02:52N 38°54' E 001°36'615.4
2017-Sep-20 02:30N 38°54' E 001°28'1 1.9
2017-Sep-20 02:00N 38°54' E 001°27'0 0.0
2017-Sep-20 01:30N 38°54' E 001°27'0 0.0
2017-Sep-20 01:00N 38°54' E 001°27'0 0.0
2017-Sep-20 00:30N 38°54' E 001°27'0 0.0
2017-Sep-20 00:00N 38°54' E 001°27'0 0.0
2017-Sep-19 23:30N 38°54' E 001°27'0 0.0
2017-Sep-19 23:00N 38°54' E 001°27'0 0.0
2017-Sep-19 22:30N 38°54' E 001°27'0 0.0
2017-Sep-19 22:00N 38°54' E 001°27'0 0.0
2017-Sep-19 21:30N 38°54' E 001°27'0 0.0
2017-Sep-19 21:00N 38°54' E 001°27'0 0.0
2017-Sep-19 20:27N 38°54' E 001°27'0 0.0
2017-Sep-19 20:00N 38°54' E 001°27'0 0.0
2017-Sep-19 19:30N 38°54' E 001°27'0 0.0
2017-Sep-19 06:01N 38°54' E 001°27'9 9.3
2017-Sep-19 05:06N 38°57' E 001°37'3 9.7
2017-Sep-19 04:49N 38°59' E 001°40'3 9.9
2017-Sep-19 04:28N 39°01' E 001°44'5 9.9
2017-Sep-19 04:00N 39°03' E 001°49'5 9.8
2017-Sep-19 03:30N 39°06' E 001°54'5 9.6
2017-Sep-19 03:01N 39°09' E 001°59'5 9.0
2017-Sep-19 02:30N 39°11' E 002°04'4 8.5
2017-Sep-19 02:00N 39°13' E 002°09'4 8.2
2017-Sep-19 01:30N 39°16' E 002°13'4 8.5
2017-Sep-19 01:01N 39°18' E 002°17'5 9.3
2017-Sep-19 00:30N 39°20' E 002°23'5 9.1
2017-Sep-19 00:00N 39°23' E 002°27'5 9.2
2017-Sep-18 23:31N 39°25' E 002°32'5 9.1
2017-Sep-18 23:00N 39°29' E 002°36'5 9.1
2017-Sep-18 22:30N 39°33' E 002°39'1 1.2
2017-Sep-18 22:00N 39°33' E 002°38'0 0.0
2017-Sep-18 21:30N 39°33' E 002°38'0 0.0
2017-Sep-18 21:00N 39°33' E 002°38'0 0.0
2017-Sep-18 20:30N 39°33' E 002°38'0 0.0
2017-Sep-18 20:00N 39°33' E 002°38'0 0.0
2017-Sep-18 19:30N 39°33' E 002°38'0 0.0
2017-Sep-18 19:00N 39°33' E 002°38'0 0.0
2017-Sep-18 18:30N 39°33' E 002°38'0 0.0
2017-Sep-18 18:00N 39°33' E 002°38'0 0.0
2017-Sep-18 17:30N 39°33' E 002°38'0 0.0
2017-Sep-18 17:00N 39°33' E 002°38'0 0.0
2017-Sep-18 16:30N 39°33' E 002°38'0 0.0
2017-Sep-18 16:00N 39°33' E 002°38'0 0.0
2017-Sep-18 15:30N 39°33' E 002°38'0 0.0
2017-Sep-18 15:00N 39°33' E 002°38'0 0.0
2017-Sep-18 14:30N 39°33' E 002°38'0 0.0
2017-Sep-18 14:00N 39°33' E 002°38'0 0.0
2017-Sep-18 13:30N 39°33' E 002°38'0 0.0
2017-Sep-18 13:00N 39°33' E 002°38'0 0.0
2017-Sep-18 12:27N 39°33' E 002°38'0 0.3
2017-Sep-18 12:00N 39°33' E 002°38'3 6.4
2017-Sep-18 11:29N 39°30' E 002°37'714.1
2017-Sep-18 11:00N 39°25' E 002°31'714.2
2017-Sep-18 10:30N 39°28' E 002°22'1511.6
2017-Sep-18 09:12N 39°43' E 002°21'313.9
2017-Sep-18 09:00N 39°45' E 002°23'713.9
2017-Sep-18 08:30N 39°51' E 002°27'713.7
2017-Sep-18 08:00N 39°57' E 002°32'713.8
2017-Sep-18 07:30N 40°03' E 002°37'713.6
2017-Sep-18 07:00N 40°09' E 002°41'713.6
2017-Sep-18 06:30N 40°15' E 002°46'714.4
2017-Sep-18 06:00N 40°21' E 002°51'714.4
2017-Sep-18 05:30N 40°27' E 002°56'714.1
2017-Sep-18 05:00N 40°33' E 003°00'713.9
2017-Sep-18 04:30N 40°39' E 003°05'714.2
2017-Sep-18 04:00N 40°45' E 003°10'13315.1
2017-Sep-17 19:11N 42°39' E 004°42'315.0
2017-Sep-17 19:00N 42°41' E 004°44'815.7
2017-Sep-17 18:30N 42°48' E 004°50'815.3
2017-Sep-17 18:00N 42°54' E 004°55'815.2
2017-Sep-17 17:31N 43°01' E 005°00'815.5
2017-Sep-17 17:00N 43°07' E 005°06'815.3
2017-Sep-17 16:30N 43°14' E 005°12'914.8
2017-Sep-17 15:56N 43°21' E 005°18'1 0.1
2017-Sep-17 06:23N 43°21' E 005°19'4 9.9
2017-Sep-17 06:00N 43°18' E 005°16'7713.1
2017-Sep-17 00:07N 43°10' E 007°02'216.5
2017-Sep-17 00:00N 43°11' E 007°04'916.1
2017-Sep-16 23:26N 43°14' E 007°16'6014.7
2017-Sep-16 19:22N 43°42' E 008°28'615.2
2017-Sep-16 19:00N 43°46' E 008°33'815.2
2017-Sep-16 18:30N 43°52' E 008°40'815.4
2017-Sep-16 18:00N 43°58' E 008°46'815.3
2017-Sep-16 17:30N 44°04' E 008°53'815.3
2017-Sep-16 17:00N 44°12' E 008°56'815.4
2017-Sep-16 16:30N 44°19' E 008°58'510.9
2017-Sep-16 16:00N 44°24' E 008°55'0 0.5
2017-Sep-16 15:23N 44°25' E 008°55'0 0.0
2017-Sep-16 14:53N 44°25' E 008°55'0 0.0
2017-Sep-16 14:26N 44°25' E 008°55'0 0.0
2017-Sep-16 13:56N 44°25' E 008°55'0 0.0
2017-Sep-16 13:23N 44°25' E 008°55'0 0.0
2017-Sep-16 12:56N 44°25' E 008°55'0 0.0
2017-Sep-16 12:26N 44°25' E 008°55'0 0.0
2017-Sep-16 11:56N 44°25' E 008°55'0 0.0
2017-Sep-16 11:26N 44°25' E 008°55'0 0.0
2017-Sep-16 10:56N 44°25' E 008°55'0 0.0
2017-Sep-16 10:26N 44°25' E 008°55'0 0.0
2017-Sep-16 09:56N 44°25' E 008°55'0 0.0
2017-Sep-16 09:29N 44°25' E 008°55'0 0.0
2017-Sep-16 08:59N 44°25' E 008°55'0 0.0
2017-Sep-16 08:29N 44°25' E 008°55'0 0.0
2017-Sep-16 07:59N 44°25' E 008°55'0 0.0
2017-Sep-16 07:29N 44°25' E 008°55'0 0.0
2017-Sep-16 06:59N 44°25' E 008°55'0 0.0
2017-Sep-16 06:29N 44°25' E 008°55'0 0.0
2017-Sep-16 05:59N 44°25' E 008°55'0 0.0
2017-Sep-16 05:30N 44°25' E 008°55'1 1.1
2017-Sep-16 05:00N 44°24' E 008°55'2 4.2
2017-Sep-16 04:30N 44°23' E 008°57'4 7.6
2017-Sep-16 04:00N 44°19' E 008°59'5 9.2
2017-Sep-16 03:30N 44°15' E 009°01'5 9.8
2017-Sep-16 03:00N 44°10' E 009°03'510.0
2017-Sep-16 02:30N 44°05' E 009°06'510.1
2017-Sep-16 02:00N 44°01' E 009°08'510.5
2017-Sep-16 01:30N 43°56' E 009°10'4 8.3
2017-Sep-16 01:00N 43°52' E 009°12'3 6.9
2017-Sep-16 00:30N 43°49' E 009°14'3 7.0
2017-Sep-16 00:00N 43°45' E 009°15'3 6.9
2017-Sep-15 23:30N 43°42' E 009°17'3 6.7
2017-Sep-15 23:00N 43°39' E 009°19'3 6.7
2017-Sep-15 22:30N 43°36' E 009°21'4 7.1
2017-Sep-15 22:00N 43°33' E 009°23'4 7.9
2017-Sep-15 21:30N 43°32' E 009°29'4 8.2
2017-Sep-15 21:00N 43°32' E 009°34'4 8.2
2017-Sep-15 20:30N 43°32' E 009°40'4 8.0
2017-Sep-15 20:00N 43°32' E 009°46'4 8.1
2017-Sep-15 19:30N 43°32' E 009°51'4 8.0
2017-Sep-15 19:00N 43°32' E 009°57'4 8.1
2017-Sep-15 18:30N 43°31' E 010°02'4 8.0
2017-Sep-15 18:00N 43°30' E 010°07'4 8.6
2017-Sep-15 17:30N 43°31' E 010°13'4 7.2
2017-Sep-15 17:01N 43°33' E 010°18'0 0.0
2017-Sep-15 16:29N 43°33' E 010°18'0 0.0
2017-Sep-15 15:59N 43°33' E 010°18'0 0.0
2017-Sep-15 15:20N 43°33' E 010°18'0 0.0
2017-Sep-15 14:59N 43°33' E 010°18'0 0.0
2017-Sep-15 14:29N 43°33' E 010°18'0 0.0
2017-Sep-15 13:59N 43°33' E 010°18'0 0.0
2017-Sep-15 13:29N 43°33' E 010°18'0 0.0
2017-Sep-15 12:59N 43°33' E 010°18'0 0.0
2017-Sep-15 12:29N 43°33' E 010°18'0 0.0
2017-Sep-15 11:59N 43°33' E 010°18'0 0.0
2017-Sep-15 11:29N 43°33' E 010°18'0 0.0
2017-Sep-15 10:59N 43°33' E 010°18'0 0.0
2017-Sep-15 10:29N 43°33' E 010°18'0 0.0
2017-Sep-15 09:59N 43°33' E 010°18'0 0.0
2017-Sep-15 09:29N 43°33' E 010°18'0 0.0
2017-Sep-15 08:59N 43°33' E 010°18'0 0.0
2017-Sep-15 08:29N 43°33' E 010°18'0 0.0
2017-Sep-15 07:59N 43°33' E 010°18'0 0.0
2017-Sep-15 07:29N 43°33' E 010°18'0 0.0
2017-Sep-15 06:59N 43°33' E 010°18'0 0.0
2017-Sep-15 06:29N 43°33' E 010°18'0 0.0
2017-Sep-15 05:59N 43°33' E 010°18'0 0.2
2017-Sep-15 05:30N 43°33' E 010°18'2 3.5
2017-Sep-15 05:00N 43°32' E 010°16'5 9.7
2017-Sep-15 04:30N 43°28' E 010°13'611.3
2017-Sep-15 04:00N 43°22' E 010°10'713.2
2017-Sep-15 03:30N 43°16' E 010°07'714.0
2017-Sep-15 03:00N 43°09' E 010°04'  

Dump ship's entire track history